createdAt,value
2023-05-16T00:02:07.950Z,99830.50
2023-05-16T00:04:56.384Z,99364.69
2023-05-16T00:07:33.952Z,99415.72
2023-05-16T00:10:12.272Z,99414.00
2023-05-16T00:12:43.047Z,99771.53
2023-05-16T00:15:16.828Z,99625.16
2023-05-16T00:18:04.713Z,99784.41
2023-05-16T00:20:34.104Z,99438.06
2023-05-16T00:23:10.973Z,99787.38
2023-05-16T00:25:54.342Z,99622.38
2023-05-16T00:28:29.557Z,99425.28
2023-05-16T00:31:13.683Z,99796.25
2023-05-16T00:33:43.587Z,99616.09
2023-05-16T00:36:11.729Z,99792.97
2023-05-16T00:38:41.280Z,99333.06
2023-05-16T00:41:09.266Z,99381.50
2023-05-16T00:43:40.393Z,99629.81
2023-05-16T00:46:11.821Z,99784.75
2023-05-16T00:48:43.500Z,99458.72
2023-05-16T00:51:15.516Z,99457.47
2023-05-16T00:53:54.606Z,99342.50
2023-05-16T00:56:36.928Z,99680.75
2023-05-16T00:59:17.364Z,99630.66
2023-05-16T01:01:52.776Z,99408.84
2023-05-16T01:04:51.843Z,99445.00
2023-05-16T01:08:28.553Z,99698.38
2023-05-16T01:11:05.416Z,99367.84
2023-05-16T01:13:42.750Z,99609.91
2023-05-16T01:16:20.168Z,99719.34
2023-05-16T01:18:54.025Z,99355.03
2023-05-16T01:21:32.881Z,99626.47
2023-05-16T01:24:49.861Z,99592.88
2023-05-16T01:27:26.439Z,99710.19
2023-05-16T01:30:05.899Z,99828.22
2023-05-16T01:32:37.548Z,99837.97
2023-05-16T01:35:06.127Z,99824.81
2023-05-16T01:37:37.468Z,99839.00
2023-05-16T01:40:09.737Z,99843.47
2023-05-16T01:42:41.084Z,99769.19
2023-05-16T01:45:12.488Z,99816.06
2023-05-16T01:47:41.471Z,99809.47
2023-05-16T01:50:11.142Z,99844.06
2023-05-16T01:52:42.200Z,99850.31
2023-05-16T01:55:11.691Z,99852.13
2023-05-16T01:57:40.893Z,99860.97
2023-05-16T02:00:09.903Z,99861.13
2023-05-16T02:02:37.795Z,99815.34
2023-05-16T02:05:07.477Z,99764.63
2023-05-16T02:07:35.544Z,99812.06
2023-05-16T02:10:03.400Z,99685.78
2023-05-16T02:12:31.374Z,99792.84
2023-05-16T02:15:00.674Z,99677.50
2023-05-16T02:17:29.233Z,99837.63
2023-05-16T02:19:57.737Z,99817.91
2023-05-16T02:22:26.317Z,99770.19
2023-05-16T02:24:54.188Z,99891.38
2023-05-16T02:27:22.058Z,99895.06
2023-05-16T02:29:50.021Z,99893.50
2023-05-16T02:32:19.308Z,99834.16
2023-05-16T02:34:47.317Z,99849.16
2023-05-16T02:37:15.323Z,99800.16
2023-05-16T02:39:43.043Z,99907.88
2023-05-16T02:42:10.703Z,99918.47
2023-05-16T02:44:38.464Z,99925.56
2023-05-16T02:47:06.166Z,99926.50
2023-05-16T02:49:36.283Z,99931.69
2023-05-16T02:52:04.146Z,99933.47
2023-05-16T02:54:31.920Z,99862.41
2023-05-16T02:56:59.639Z,99934.41
2023-05-16T02:59:27.737Z,99940.53
2023-05-16T03:01:55.452Z,99901.50
2023-05-16T03:04:23.876Z,99907.53
2023-05-16T03:06:52.899Z,99946.66
2023-05-16T03:09:20.682Z,99945.81
2023-05-16T03:11:48.432Z,99948.44
2023-05-16T03:14:16.396Z,99944.91
2023-05-16T03:16:49.231Z,99951.00
2023-05-16T03:19:17.205Z,99832.47
2023-05-16T03:21:45.132Z,99879.19
2023-05-16T03:24:14.279Z,99959.69
2023-05-16T03:26:42.180Z,99960.47
2023-05-16T03:29:10.008Z,99918.69
2023-05-16T03:31:37.766Z,99963.00
2023-05-16T03:34:05.738Z,99958.53
2023-05-16T03:36:33.430Z,99956.41
2023-05-16T03:39:01.188Z,99921.22
2023-05-16T03:41:30.357Z,99964.72
2023-05-16T03:43:58.045Z,99969.09
2023-05-16T03:46:25.993Z,99899.78
2023-05-16T03:48:53.794Z,99968.28
2023-05-16T03:51:21.626Z,99965.72
2023-05-16T03:53:49.379Z,99931.06
2023-05-16T04:00:07.925Z,99573.50
2023-05-16T04:10:58.578Z,99999.16
2023-05-16T04:14:20.904Z,100073.25
2023-05-16T04:24:44.010Z,99901.41
2023-05-16T04:31:05.111Z,99863.59
2023-05-16T05:13:29.177Z,99837.81
2023-05-16T05:30:54.067Z,100103.41
2023-05-16T05:33:22.024Z,100048.56
2023-05-16T05:36:14.334Z,100104.06
2023-05-16T05:38:43.536Z,100095.59
2023-05-16T05:41:11.943Z,100121.69
2023-05-16T05:43:39.665Z,100088.66
2023-05-16T05:46:08.383Z,100125.84
2023-05-16T05:48:36.144Z,100099.56
2023-05-16T05:51:06.258Z,100132.56
2023-05-16T05:53:33.957Z,100083.78
2023-05-16T05:56:03.115Z,100132.59
2023-05-16T05:58:45.355Z,100078.25
2023-05-16T06:01:13.109Z,100131.88
2023-05-16T06:03:41.076Z,100079.59
2023-05-16T06:06:10.602Z,100006.50
2023-05-16T06:08:38.360Z,100147.53
2023-05-16T06:11:07.558Z,100133.59
2023-05-16T06:13:35.478Z,100161.19
2023-05-16T06:16:03.278Z,100145.38
2023-05-16T06:18:31.099Z,100138.63
2023-05-16T06:20:59.342Z,100131.72
2023-05-16T06:23:27.263Z,100129.91
2023-05-16T06:25:55.071Z,100159.13
2023-05-16T06:28:25.052Z,100126.69
2023-05-16T06:30:52.863Z,100128.66
2023-05-16T06:33:20.680Z,100160.16
2023-05-16T06:35:49.009Z,100160.56
2023-05-16T06:38:16.824Z,100069.44
2023-05-16T06:40:44.533Z,99874.69
2023-05-16T06:43:13.357Z,100142.25
2023-05-16T06:45:42.696Z,99944.19
2023-05-16T06:48:11.113Z,99772.16
2023-05-16T06:50:38.998Z,100155.63
2023-05-16T06:53:07.412Z,100119.50
2023-05-16T06:55:35.582Z,100136.47
2023-05-16T06:58:03.468Z,100131.97
2023-05-16T07:00:31.366Z,100113.50
2023-05-16T07:03:00.744Z,100161.81
2023-05-16T07:05:28.720Z,100138.06
2023-05-16T07:07:56.762Z,100060.72
2023-05-16T07:10:24.886Z,100176.81
2023-05-16T07:12:52.676Z,100170.94
2023-05-16T07:15:20.598Z,100162.66
2023-05-16T07:17:48.391Z,100034.78
2023-05-16T07:20:20.428Z,100169.09
2023-05-16T07:22:57.374Z,100164.00
2023-05-16T07:25:25.869Z,100116.34
2023-05-16T07:27:54.248Z,100137.31
2023-05-16T07:30:22.047Z,100106.03
2023-05-16T07:32:52.592Z,100199.38
2023-05-16T07:35:22.225Z,100158.34
2023-05-16T07:37:49.997Z,100131.56
2023-05-16T07:40:25.735Z,100135.50
2023-05-16T07:42:53.679Z,100179.41
2023-05-16T07:45:39.837Z,100176.09
2023-05-16T07:48:08.794Z,100203.59
2023-05-16T07:50:38.265Z,100190.78
2023-05-16T07:53:06.254Z,100183.28
2023-05-16T07:55:34.280Z,100198.81
2023-05-16T07:58:02.040Z,100192.69
2023-05-16T08:00:30.144Z,100204.56
2023-05-16T08:03:01.262Z,100146.63
2023-05-16T08:05:29.459Z,100194.59
2023-05-16T08:07:58.956Z,100163.09
2023-05-16T08:10:27.022Z,100136.19
2023-05-16T08:12:55.024Z,100120.09
2023-05-16T08:15:23.242Z,100196.91
2023-05-16T08:17:51.232Z,100053.00
2023-05-16T08:20:19.294Z,100160.09
2023-05-16T08:22:47.085Z,100195.88
2023-05-16T08:25:16.354Z,100108.34
2023-05-16T08:27:45.666Z,100055.31
2023-05-16T08:30:14.731Z,100205.41
2023-05-16T08:33:21.612Z,100186.78
2023-05-16T08:35:50.053Z,100148.97
2023-05-16T08:38:17.963Z,100191.94
2023-05-16T08:40:47.183Z,100195.34
2023-05-16T08:43:37.160Z,100189.22
2023-05-16T08:46:05.193Z,100187.63
2023-05-16T08:48:35.120Z,100187.34
2023-05-16T08:51:03.231Z,100085.81
2023-05-16T08:53:33.818Z,100189.25
2023-05-16T08:56:03.473Z,100023.72
2023-05-16T08:58:31.221Z,100215.22
2023-05-16T09:00:59.273Z,100183.84
2023-05-16T09:03:28.953Z,100195.56
2023-05-16T09:05:57.823Z,100193.06
2023-05-16T09:08:26.232Z,100087.56
2023-05-16T09:10:54.717Z,100149.03
2023-05-16T09:13:25.051Z,100198.53
2023-05-16T09:16:11.311Z,100120.88
2023-05-16T09:18:39.312Z,100115.03
2023-05-16T09:21:07.644Z,100197.28
2023-05-16T09:23:37.191Z,100190.03
2023-05-16T09:26:08.004Z,100156.13
2023-05-16T09:28:59.889Z,100192.13
2023-05-16T09:31:31.749Z,100186.53
2023-05-16T09:33:59.819Z,100160.75
2023-05-16T09:36:27.535Z,100181.00
2023-05-16T09:38:55.684Z,100197.31
2023-05-16T09:41:23.662Z,100026.81
2023-05-16T09:43:52.840Z,100121.25
2023-05-16T09:46:20.741Z,100192.69
2023-05-16T09:48:49.054Z,100169.16
2023-05-16T09:51:16.929Z,100181.44
2023-05-16T09:53:52.732Z,100154.06
2023-05-16T09:56:21.557Z,100055.97
2023-05-16T09:58:49.472Z,100172.97
2023-05-16T10:01:18.921Z,100178.63
2023-05-16T10:03:53.974Z,100179.84
2023-05-16T10:06:22.904Z,100142.72
2023-05-16T10:08:51.687Z,100190.63
2023-05-16T10:11:19.568Z,100138.16
2023-05-16T10:13:50.449Z,100131.97
2023-05-16T10:16:19.655Z,100184.06
2023-05-16T10:18:47.670Z,99904.94
2023-05-16T10:21:16.572Z,100172.09
2023-05-16T10:23:51.671Z,100097.22
2023-05-16T10:26:19.544Z,100144.50
2023-05-16T10:28:47.501Z,100132.38
2023-05-16T10:31:15.701Z,100195.50
2023-05-16T10:33:46.052Z,100169.97
2023-05-16T10:36:15.957Z,100118.91
2023-05-16T10:38:43.943Z,100013.59
2023-05-16T10:41:12.966Z,100121.81
2023-05-16T10:43:43.067Z,100176.09
2023-05-16T10:46:12.424Z,100165.28
2023-05-16T10:48:41.331Z,100082.56
2023-05-16T10:51:41.439Z,100172.28
2023-05-16T10:54:15.353Z,100177.63
2023-05-16T10:56:43.685Z,100072.22
2023-05-16T10:59:28.532Z,100159.31
2023-05-16T11:01:56.795Z,100182.13
2023-05-16T11:04:35.117Z,100208.00
2023-05-16T11:07:04.363Z,100136.59
2023-05-16T11:09:32.152Z,99870.59
2023-05-16T11:12:01.256Z,100195.56
2023-05-16T11:14:32.046Z,100185.19
2023-05-16T11:17:03.590Z,100191.38
2023-05-16T11:19:35.804Z,99911.69
2023-05-16T11:22:09.458Z,100202.97
2023-05-16T11:24:38.150Z,100166.00
2023-05-16T11:29:47.552Z,100204.88
2023-05-16T11:32:15.947Z,100071.84
2023-05-16T11:34:46.304Z,99919.63
2023-05-16T11:37:16.330Z,100051.31
2023-05-16T11:39:44.546Z,99844.19
2023-05-16T11:42:13.357Z,100167.19
2023-05-16T11:44:41.998Z,100109.06
2023-05-16T11:47:10.125Z,100135.50
2023-05-16T11:49:38.337Z,99883.41
2023-05-16T11:52:06.681Z,99913.53
2023-05-16T11:54:36.559Z,100251.53
2023-05-16T11:57:04.635Z,99980.56
2023-05-16T11:59:32.783Z,100062.75
2023-05-16T12:02:05.317Z,100220.53
2023-05-16T12:04:33.683Z,100154.69
2023-05-16T12:07:02.643Z,100012.69
2023-05-16T12:09:31.186Z,100111.03
2023-05-16T12:12:00.884Z,99980.13
2023-05-16T12:14:28.940Z,100131.06
2023-05-16T12:16:57.147Z,99889.13
2023-05-16T12:19:25.549Z,100153.44
2023-05-16T12:21:54.628Z,100223.25
2023-05-16T12:24:23.116Z,99794.81
2023-05-16T12:26:51.111Z,99953.03
2023-05-16T12:29:20.614Z,100086.69
2023-05-16T12:31:51.379Z,100280.72
2023-05-16T12:34:21.522Z,99822.41
2023-05-16T12:36:53.062Z,100024.03
2023-05-16T12:39:21.190Z,99880.03
2023-05-16T12:41:49.278Z,99951.00
2023-05-16T12:44:19.892Z,100165.31
2023-05-16T12:46:52.032Z,100013.13
2023-05-16T12:49:21.942Z,99728.50
2023-05-16T12:51:51.213Z,99907.41
2023-05-16T12:54:19.401Z,99949.16
2023-05-16T12:56:47.275Z,99953.03
2023-05-16T12:59:15.205Z,100022.22
2023-05-16T13:01:44.465Z,99862.97
2023-05-16T13:04:16.916Z,100176.28
2023-05-16T13:06:58.452Z,100117.34
2023-05-16T13:09:32.095Z,99843.19
2023-05-16T13:12:00.865Z,99898.81
2023-05-16T13:14:28.829Z,100082.53
2023-05-16T13:16:56.588Z,100145.63
2023-05-16T13:19:26.258Z,100242.94
2023-05-16T13:21:54.195Z,100321.69
2023-05-16T13:24:22.008Z,100304.16
2023-05-16T13:26:49.884Z,99958.06
2023-05-16T13:29:17.849Z,100099.06
2023-05-16T13:31:45.885Z,100172.63
2023-05-16T13:34:13.742Z,100079.19
2023-05-16T13:36:53.655Z,100081.66
2023-05-16T13:39:23.053Z,100078.59
2023-05-16T13:41:51.533Z,100163.97
2023-05-16T13:44:19.561Z,99998.94
2023-05-16T13:46:47.590Z,100137.06
2023-05-16T13:49:15.956Z,100111.16
2023-05-16T13:51:45.606Z,99809.53
2023-05-16T13:54:13.731Z,99857.28
2023-05-16T13:56:42.127Z,100010.34
2023-05-16T13:59:12.340Z,99926.00
2023-05-16T14:01:43.421Z,99920.94
2023-05-16T14:04:11.986Z,99839.03
2023-05-16T14:06:40.142Z,100157.56
2023-05-16T14:09:09.638Z,100038.75
2023-05-16T14:11:37.532Z,99856.00
2023-05-16T14:14:06.306Z,100056.88
2023-05-16T14:16:34.455Z,100017.78
2023-05-16T14:19:03.096Z,99857.22
2023-05-16T14:21:31.212Z,100107.56
2023-05-16T14:23:59.348Z,100138.91
2023-05-16T14:26:31.304Z,100048.88
2023-05-16T14:29:01.637Z,100079.56
2023-05-16T14:31:36.578Z,99906.47
2023-05-16T14:34:04.777Z,99927.88
2023-05-16T14:36:33.145Z,99845.59
2023-05-16T14:39:04.275Z,99926.41
2023-05-16T14:41:33.626Z,100043.50
2023-05-16T14:44:01.887Z,100136.94
2023-05-16T14:46:29.870Z,100112.47
2023-05-16T14:48:57.943Z,99954.34
2023-05-16T14:51:25.928Z,99935.19
2023-05-16T14:53:53.954Z,99963.78
2023-05-16T14:56:22.748Z,100225.19
2023-05-16T14:58:52.004Z,100068.28
2023-05-16T15:01:20.178Z,99905.63
2023-05-16T15:03:55.468Z,100177.03
2023-05-16T15:06:24.598Z,100148.25
2023-05-16T15:08:52.675Z,100150.72
2023-05-16T15:11:21.788Z,100130.72
2023-05-16T15:13:51.101Z,100262.50
2023-05-16T15:16:19.107Z,100272.44
2023-05-16T15:18:47.044Z,100237.66
2023-05-16T15:21:14.918Z,100256.19
2023-05-16T15:23:43.345Z,100217.75
2023-05-16T15:26:11.314Z,100219.53
2023-05-16T15:28:39.184Z,100195.69
2023-05-16T15:31:08.532Z,100240.59
2023-05-16T15:33:36.327Z,100250.66
2023-05-16T15:36:04.227Z,100053.56
2023-05-16T15:38:32.128Z,100197.44
2023-05-16T15:41:15.901Z,100227.94
2023-05-16T15:43:47.771Z,100216.13
2023-05-16T15:46:16.979Z,99978.03
2023-05-16T15:48:45.017Z,100269.59
2023-05-16T15:51:13.141Z,100109.63
2023-05-16T15:53:41.223Z,100191.59
2023-05-16T15:56:09.502Z,100130.38
2023-05-16T15:58:37.353Z,100231.16
2023-05-16T16:01:05.406Z,100194.19
2023-05-16T16:03:34.701Z,99906.09
2023-05-16T16:06:02.599Z,100045.16
2023-05-16T16:08:30.403Z,100288.25
2023-05-16T16:10:58.594Z,100242.03
2023-05-16T16:13:26.587Z,100015.53
2023-05-16T16:15:54.606Z,100069.34
2023-05-16T16:18:22.473Z,100056.25
2023-05-16T16:20:53.001Z,100054.13
2023-05-16T16:23:21.744Z,100312.09
2023-05-16T16:25:50.326Z,100086.72
2023-05-16T16:28:18.827Z,100362.81
2023-05-16T16:30:50.289Z,100150.69
2023-05-16T16:33:18.389Z,100330.13
2023-05-16T16:35:46.735Z,100314.28
2023-05-16T16:38:16.574Z,100311.53
2023-05-16T16:40:44.979Z,100288.34
2023-05-16T16:43:13.059Z,100038.50
2023-05-16T16:45:41.273Z,99966.03
2023-05-16T16:48:10.867Z,100061.50
2023-05-16T16:50:39.238Z,100248.78
2023-05-16T16:53:07.773Z,100245.03
2023-05-16T16:55:45.067Z,100157.53
2023-05-16T16:58:13.075Z,100247.53
2023-05-16T17:01:30.343Z,100162.44
2023-05-16T17:04:06.362Z,100343.00
2023-05-16T17:06:36.161Z,100122.03
2023-05-16T17:09:07.528Z,100345.16
2023-05-16T17:11:40.982Z,100313.50
2023-05-16T17:14:10.932Z,100244.16
2023-05-16T17:16:41.116Z,100404.38
2023-05-16T17:19:24.767Z,100316.22
2023-05-16T17:22:10.679Z,100027.75
2023-05-16T17:24:42.441Z,99952.19
2023-05-16T17:27:47.098Z,100316.44
2023-05-16T17:32:57.737Z,100185.13
2023-05-16T17:35:25.951Z,100097.28
2023-05-16T17:37:55.362Z,100340.13
2023-05-16T17:40:23.547Z,100316.88
2023-05-16T17:42:52.893Z,100399.59
2023-05-16T17:45:39.310Z,99995.25
2023-05-16T17:48:08.018Z,100319.31
2023-05-16T17:50:37.378Z,100150.81
2023-05-16T17:53:13.082Z,100055.56
2023-05-16T17:55:41.481Z,100096.22
2023-05-16T17:58:10.905Z,100384.88
2023-05-16T18:00:56.620Z,100355.00
2023-05-16T18:03:25.006Z,100232.38
2023-05-16T18:05:53.086Z,100449.94
2023-05-16T18:08:56.138Z,100351.03
2023-05-16T18:12:03.521Z,100361.78
2023-05-16T18:14:55.506Z,100395.59
2023-05-16T18:17:23.477Z,100167.41
2023-05-16T18:19:55.255Z,100229.41
2023-05-16T18:22:44.216Z,100171.34
2023-05-16T18:25:12.462Z,100319.28
2023-05-16T18:27:40.656Z,100103.22
2023-05-16T18:30:13.306Z,100380.50
2023-05-16T18:32:43.393Z,100351.78
2023-05-16T18:35:13.141Z,100406.25
2023-05-16T18:37:44.078Z,100366.44
2023-05-16T18:40:13.920Z,100128.00
2023-05-16T18:42:42.925Z,100372.03
2023-05-16T18:45:13.040Z,100378.22
2023-05-16T18:47:41.416Z,100041.50
2023-05-16T18:50:15.711Z,100247.97
2023-05-16T18:53:05.108Z,100286.47
2023-05-16T18:55:33.838Z,100341.69
2023-05-16T18:58:02.559Z,100237.22
2023-05-16T19:00:32.064Z,100496.94
2023-05-16T19:03:02.590Z,100501.59
2023-05-16T19:05:34.211Z,100347.88
2023-05-16T19:08:03.520Z,100387.16
2023-05-16T19:10:32.141Z,100404.00
2023-05-16T19:13:07.184Z,100274.47
2023-05-16T19:15:36.785Z,100390.13
2023-05-16T19:18:05.037Z,100427.19
2023-05-16T19:20:33.966Z,100376.16
2023-05-16T19:23:02.482Z,100395.66
2023-05-16T19:25:30.378Z,100198.50
2023-05-16T19:27:58.517Z,100393.22
2023-05-16T19:30:26.483Z,100239.41
2023-05-16T19:32:56.078Z,100410.78
2023-05-16T19:35:23.957Z,100405.84
2023-05-16T19:37:51.853Z,100415.28
2023-05-16T19:40:20.071Z,100441.75
2023-05-16T19:46:36.158Z,100358.00
2023-05-16T19:49:05.560Z,100321.09
2023-05-16T19:51:41.216Z,100323.47
2023-05-16T19:54:10.710Z,100446.44
2023-05-16T19:56:38.576Z,100426.31
2023-05-16T19:59:06.541Z,100375.09
2023-05-16T20:01:34.649Z,100426.41
2023-05-16T20:04:02.636Z,100428.19
2023-05-16T20:06:34.478Z,100430.03
2023-05-16T20:09:20.675Z,100428.34
2023-05-16T20:11:50.811Z,100431.91
2023-05-16T20:14:20.425Z,100372.81
2023-05-16T20:16:48.464Z,100429.38
2023-05-16T20:19:18.937Z,100400.88
2023-05-16T20:21:48.578Z,100301.91
2023-05-16T20:24:20.661Z,100444.41
2023-05-16T20:26:48.573Z,100447.09
2023-05-16T20:29:16.648Z,100469.13
2023-05-16T20:31:47.664Z,100451.63
2023-05-16T20:34:15.787Z,100369.94
2023-05-16T20:36:45.967Z,100420.66
2023-05-16T20:39:15.489Z,100453.66
2023-05-16T20:41:43.562Z,100397.63
2023-05-16T20:44:11.586Z,100457.41
2023-05-16T20:47:05.354Z,100461.06
2023-05-16T20:49:33.247Z,100459.53
2023-05-16T20:52:04.803Z,100191.47
2023-05-16T20:54:45.366Z,100466.69
2023-05-16T20:57:13.691Z,100461.44
2023-05-16T20:59:48.816Z,100276.94
2023-05-16T21:02:19.971Z,100494.19
2023-05-16T21:04:57.442Z,100464.19
2023-05-16T21:07:27.813Z,100354.13
2023-05-16T21:10:00.598Z,100489.72
2023-05-16T21:12:40.794Z,100467.72
2023-05-16T21:15:10.297Z,100467.75
2023-05-16T21:17:39.502Z,100465.16
2023-05-16T21:20:09.555Z,100466.03
2023-05-16T21:22:39.586Z,100460.84
2023-05-16T21:25:12.482Z,100467.97
2023-05-16T21:27:40.356Z,100433.31
2023-05-16T21:30:09.431Z,100451.50
2023-05-16T21:32:37.307Z,100340.78
2023-05-16T21:35:06.829Z,100581.25
2023-05-16T21:37:34.798Z,100459.03
2023-05-16T21:40:02.732Z,100461.66
2023-05-16T21:42:33.126Z,100481.91
2023-05-16T21:45:02.262Z,100463.47
2023-05-16T21:47:30.195Z,100467.00
2023-05-16T21:49:58.198Z,100398.22
2023-05-16T21:52:26.084Z,100467.19
2023-05-16T21:54:54.549Z,100402.00
2023-05-16T21:57:22.321Z,100462.13
2023-05-16T21:59:51.936Z,100466.63
2023-05-16T22:02:23.746Z,100467.63
2023-05-16T22:04:53.242Z,100482.66
2023-05-16T22:07:21.179Z,100443.63
2023-05-16T22:09:53.556Z,100464.44
2023-05-16T22:12:23.888Z,100472.38
2023-05-16T22:14:53.336Z,100469.91
2023-05-16T22:17:21.160Z,100472.59
2023-05-16T22:19:50.399Z,100473.53
2023-05-16T22:22:18.225Z,100298.44
2023-05-16T22:24:48.424Z,100478.00
2023-05-16T22:27:16.412Z,100419.66
2023-05-16T22:29:44.392Z,100486.91
2023-05-16T22:32:14.920Z,100499.41
2023-05-16T22:34:42.927Z,100486.13
2023-05-16T22:37:10.904Z,100449.53
2023-05-16T22:39:38.660Z,100487.94
2023-05-16T22:42:07.274Z,100460.94
2023-05-16T22:44:35.381Z,100420.94
2023-05-16T22:47:03.571Z,100386.06
2023-05-16T22:49:32.943Z,100459.50
2023-05-16T22:52:00.754Z,100510.94
2023-05-16T22:54:30.217Z,100494.28
2023-05-16T22:56:58.396Z,100340.72
2023-05-16T22:59:26.338Z,100498.69
2023-05-16T23:01:54.146Z,100424.53
2023-05-16T23:04:23.688Z,100502.28
2023-05-16T23:06:52.936Z,100504.94
2023-05-16T23:09:21.303Z,100504.94
2023-05-16T23:11:49.249Z,100509.31
2023-05-16T23:14:17.414Z,100503.22
2023-05-16T23:16:45.225Z,100505.88
2023-05-16T23:19:13.194Z,100445.63
2023-05-16T23:21:41.126Z,100485.81
2023-05-16T23:24:10.841Z,100408.16
2023-05-16T23:26:38.725Z,100519.09
2023-05-16T23:29:07.041Z,100466.66
2023-05-16T23:31:34.916Z,100518.19
2023-05-16T23:34:05.885Z,100516.47
2023-05-16T23:36:33.782Z,100518.22
2023-05-16T23:39:01.687Z,100517.41
2023-05-16T23:44:43.433Z,100312.22
2023-05-16T23:58:28.733Z,100211.91
